createdAt,value
2023-03-04T00:02:26.609Z,13.40
2023-03-04T00:04:53.293Z,13.35
2023-03-04T00:07:20.533Z,11.60
2023-03-04T00:09:47.502Z,10.65
2023-03-04T00:12:14.286Z,15.98
2023-03-04T00:14:41.699Z,10.23
2023-03-04T00:17:08.544Z,8.77
2023-03-04T00:19:35.572Z,14.27
2023-03-04T00:22:04.400Z,17.08
2023-03-04T00:24:31.919Z,12.18
2023-03-04T00:26:58.708Z,10.07
2023-03-04T00:29:25.674Z,16.23
2023-03-04T00:31:52.405Z,11.82
2023-03-04T00:34:19.272Z,9.00
2023-03-04T00:36:46.101Z,18.92
2023-03-04T00:39:13.528Z,8.60
2023-03-04T00:41:40.563Z,7.43
2023-03-04T00:44:07.295Z,11.50
2023-03-04T00:46:34.084Z,12.68
2023-03-04T00:49:00.788Z,11.82
2023-03-04T00:51:27.796Z,10.85
2023-03-04T00:53:54.595Z,11.07
2023-03-04T00:56:21.318Z,13.90
2023-03-04T00:58:48.089Z,11.98
2023-03-04T01:01:14.824Z,15.27
2023-03-04T01:03:42.386Z,10.90
2023-03-04T01:06:09.494Z,11.23
2023-03-04T01:08:36.235Z,8.85
2023-03-04T01:11:03.021Z,10.00
2023-03-04T01:13:29.747Z,12.75
2023-03-04T01:15:57.556Z,9.68
2023-03-04T01:18:24.847Z,14.77
2023-03-04T01:20:51.999Z,14.52
2023-03-04T01:23:18.874Z,13.15
2023-03-04T01:25:45.650Z,14.25
2023-03-04T01:28:12.558Z,13.20
2023-03-04T01:30:39.341Z,12.80
2023-03-04T01:33:06.109Z,9.45
2023-03-04T01:35:33.068Z,7.75
2023-03-04T01:37:59.766Z,20.48
2023-03-04T01:40:26.502Z,10.57
2023-03-04T01:42:53.234Z,12.23
2023-03-04T01:45:20.817Z,10.73
2023-03-04T01:47:49.149Z,10.18
2023-03-04T01:50:28.242Z,10.82
2023-03-04T01:52:54.918Z,17.35
2023-03-04T01:55:23.247Z,9.27
2023-03-04T01:57:51.187Z,12.05
2023-03-04T02:00:29.171Z,11.32
2023-03-04T02:03:00.980Z,21.00
2023-03-04T02:05:28.575Z,12.07
2023-03-04T02:07:56.904Z,7.90
2023-03-04T02:10:24.120Z,8.77
2023-03-04T02:12:52.161Z,12.13
2023-03-04T02:15:19.106Z,9.45
2023-03-04T02:17:45.904Z,12.68
2023-03-04T02:20:21.887Z,10.60
2023-03-04T02:23:01.649Z,9.90
2023-03-04T02:25:37.866Z,10.45
2023-03-04T02:28:04.687Z,11.65
2023-03-04T02:30:31.455Z,5.43
2023-03-04T02:32:58.363Z,9.38
2023-03-04T02:35:25.108Z,8.98
2023-03-04T02:37:51.804Z,9.48
2023-03-04T02:40:30.761Z,8.00
2023-03-04T02:43:01.047Z,17.42
2023-03-04T02:45:35.858Z,6.47
2023-03-04T02:48:03.421Z,10.75
2023-03-04T02:50:35.852Z,14.40
2023-03-04T02:53:03.003Z,9.70
2023-03-04T02:55:29.822Z,13.38
2023-03-04T02:57:56.570Z,17.27
2023-03-04T03:00:23.374Z,11.82
2023-03-04T03:02:50.380Z,11.75
2023-03-04T03:05:17.633Z,11.05
2023-03-04T03:07:44.500Z,11.98
2023-03-04T03:10:12.178Z,5.47
2023-03-04T03:12:38.878Z,15.90
2023-03-04T03:15:06.255Z,8.65
2023-03-04T03:17:33.020Z,13.35
2023-03-04T03:19:59.789Z,7.97
2023-03-04T03:22:27.875Z,11.25
2023-03-04T03:24:54.584Z,12.35
2023-03-04T03:27:21.254Z,10.75
2023-03-04T03:29:47.992Z,6.93
2023-03-04T03:32:14.788Z,12.25
2023-03-04T03:34:41.676Z,10.43
2023-03-04T03:37:08.380Z,11.38
2023-03-04T03:39:35.185Z,8.43
2023-03-04T03:42:01.936Z,8.18
2023-03-04T03:44:28.719Z,8.10
2023-03-04T03:46:55.370Z,8.02
2023-03-04T03:49:22.206Z,9.77
2023-03-04T03:51:49.110Z,10.77
2023-03-04T03:54:15.899Z,10.07
2023-03-04T03:56:42.662Z,8.05
2023-03-04T03:59:09.345Z,11.68
2023-03-04T04:01:36.171Z,7.90
2023-03-04T04:04:03.486Z,7.70
2023-03-04T04:06:30.184Z,8.98
2023-03-04T04:08:56.923Z,13.73
2023-03-04T04:11:23.636Z,13.30
2023-03-04T04:13:50.332Z,11.23
2023-03-04T04:16:17.192Z,7.90
2023-03-04T04:18:43.953Z,6.00
2023-03-04T04:21:10.661Z,5.85
2023-03-04T04:23:37.428Z,7.80
2023-03-04T04:26:04.376Z,8.80
2023-03-04T04:28:31.263Z,6.97
2023-03-04T04:30:58.025Z,6.22
2023-03-04T04:33:25.849Z,7.10
2023-03-04T04:35:53.077Z,9.82
2023-03-04T04:38:19.999Z,8.30
2023-03-04T04:40:46.729Z,8.90
2023-03-04T04:43:13.627Z,6.63
2023-03-04T04:45:40.346Z,7.07
2023-03-04T04:48:07.153Z,8.65
2023-03-04T04:50:33.844Z,7.55
2023-03-04T04:53:00.711Z,11.48
2023-03-04T04:55:28.161Z,8.60
2023-03-04T04:57:54.920Z,6.88
2023-03-04T05:00:21.835Z,6.82
2023-03-04T05:02:48.532Z,10.90
2023-03-04T05:05:15.296Z,7.18
2023-03-04T05:07:42.017Z,9.85
2023-03-04T05:10:09.751Z,10.75
2023-03-04T05:12:36.514Z,11.27
2023-03-04T05:15:04.012Z,11.27
2023-03-04T05:17:30.695Z,9.68
2023-03-04T05:19:57.351Z,10.48
2023-03-04T05:22:24.002Z,11.73
2023-03-04T05:24:51.523Z,9.90
2023-03-04T05:27:18.232Z,11.60
2023-03-04T05:29:46.782Z,7.15
2023-03-04T05:32:14.112Z,7.45
2023-03-04T05:34:40.805Z,9.68
2023-03-04T05:37:07.568Z,7.75
2023-03-04T05:39:34.259Z,6.97
2023-03-04T05:42:00.955Z,12.73
2023-03-04T05:44:27.680Z,13.00
2023-03-04T05:46:54.512Z,12.25
2023-03-04T05:49:21.261Z,6.32
2023-03-04T05:51:47.955Z,8.10
2023-03-04T05:54:14.722Z,9.23
2023-03-04T05:56:41.584Z,12.13
2023-03-04T05:59:08.335Z,7.65
2023-03-04T06:01:35.056Z,6.93
2023-03-04T06:04:01.853Z,7.13
2023-03-04T06:06:28.629Z,4.70
2023-03-04T06:08:55.354Z,10.05
2023-03-04T06:11:22.160Z,8.07
2023-03-04T06:13:49.032Z,8.02
2023-03-04T06:16:15.864Z,7.25
2023-03-04T06:18:42.696Z,11.75
2023-03-04T06:21:09.384Z,7.22
2023-03-04T06:23:36.140Z,9.70
2023-03-04T06:26:03.053Z,6.53
2023-03-04T06:28:30.425Z,10.48
2023-03-04T06:30:57.610Z,11.50
2023-03-04T06:33:24.355Z,10.48
2023-03-04T06:35:54.545Z,6.88
2023-03-04T06:38:21.271Z,6.90
2023-03-04T06:40:48.050Z,10.73
2023-03-04T06:43:14.814Z,6.57
2023-03-04T06:45:41.572Z,12.60
2023-03-04T06:48:08.320Z,9.25
2023-03-04T06:50:35.117Z,10.18
2023-03-04T06:53:01.869Z,7.72
2023-03-04T06:55:28.609Z,7.78
2023-03-04T06:57:55.308Z,11.65
2023-03-04T07:00:24.013Z,9.43
2023-03-04T07:02:52.506Z,11.52
2023-03-04T07:05:20.080Z,9.98
2023-03-04T07:07:46.804Z,8.05
2023-03-04T07:10:13.592Z,5.53
2023-03-04T07:12:40.300Z,9.48
2023-03-04T07:15:07.466Z,13.35
2023-03-04T07:17:34.919Z,6.35
2023-03-04T07:20:01.951Z,7.03
2023-03-04T07:22:28.794Z,8.55
2023-03-04T07:24:55.656Z,8.82
2023-03-04T07:27:22.456Z,7.68
2023-03-04T07:29:49.131Z,10.75
2023-03-04T07:32:16.023Z,12.38
2023-03-04T07:34:42.798Z,8.05
2023-03-04T07:37:09.542Z,7.05
2023-03-04T07:39:36.252Z,15.00
2023-03-04T07:42:02.988Z,5.28
2023-03-04T07:44:29.798Z,9.50
2023-03-04T07:46:56.486Z,8.60
2023-03-04T07:49:23.176Z,8.07
2023-03-04T07:51:49.872Z,6.85
2023-03-04T07:54:16.595Z,6.15
2023-03-04T07:56:43.491Z,7.13
2023-03-04T07:59:10.217Z,6.68
2023-03-04T08:01:38.085Z,4.30
2023-03-04T08:04:06.418Z,5.00
2023-03-04T08:06:33.876Z,7.28
2023-03-04T08:09:06.540Z,4.93
2023-03-04T08:11:34.979Z,8.48
2023-03-04T08:14:02.252Z,5.95
2023-03-04T08:16:29.264Z,6.82
2023-03-04T08:18:58.731Z,5.95
2023-03-04T08:21:27.317Z,4.22
2023-03-04T08:23:54.865Z,6.68
2023-03-04T08:26:27.466Z,4.78
2023-03-04T08:28:56.597Z,3.85
2023-03-04T08:31:24.208Z,4.75
2023-03-04T08:33:52.646Z,5.40
2023-03-04T08:36:20.088Z,5.55
2023-03-04T08:38:46.982Z,9.32
2023-03-04T08:41:15.400Z,3.97
2023-03-04T08:43:42.274Z,6.32
2023-03-04T08:46:09.181Z,7.72
2023-03-04T08:48:37.741Z,5.00
2023-03-04T08:51:13.762Z,3.13
2023-03-04T08:53:40.912Z,4.95
2023-03-04T08:56:08.703Z,7.90
2023-03-04T08:58:35.737Z,5.28
2023-03-04T09:01:03.765Z,3.63
2023-03-04T09:03:30.851Z,5.30
2023-03-04T09:05:57.585Z,5.55
2023-03-04T09:08:24.535Z,7.45
2023-03-04T09:10:54.137Z,6.00
2023-03-04T09:13:23.989Z,6.80
2023-03-04T09:15:53.179Z,4.63
2023-03-04T09:18:22.248Z,3.60
2023-03-04T09:20:49.591Z,5.07
2023-03-04T09:23:17.014Z,9.38
2023-03-04T09:25:46.337Z,3.03
2023-03-04T09:28:14.809Z,3.42
2023-03-04T09:30:42.214Z,5.72
2023-03-04T09:33:09.520Z,2.22
2023-03-04T09:35:36.626Z,4.70
2023-03-04T09:38:03.702Z,3.97
2023-03-04T09:40:43.864Z,5.22
2023-03-04T09:43:29.426Z,5.43
2023-03-04T09:46:01.343Z,4.88
2023-03-04T09:48:30.224Z,2.53
2023-03-04T09:51:21.100Z,6.03
2023-03-04T09:54:02.788Z,4.20
2023-03-04T09:56:37.824Z,2.88
2023-03-04T09:59:55.296Z,4.05
2023-03-04T10:02:50.074Z,4.60
2023-03-04T10:05:21.562Z,3.58
2023-03-04T10:07:58.424Z,4.03
2023-03-04T10:10:32.521Z,3.80
2023-03-04T10:13:01.423Z,4.82
2023-03-04T10:15:34.376Z,4.82
2023-03-04T10:18:13.084Z,4.68
2023-03-04T10:20:58.659Z,2.90
2023-03-04T10:23:27.040Z,3.28
2023-03-04T10:25:54.369Z,3.78
2023-03-04T10:28:27.491Z,2.35
2023-03-04T10:31:13.288Z,1.75
2023-03-04T10:33:41.082Z,2.40
2023-03-04T10:36:22.550Z,1.60
2023-03-04T10:38:53.729Z,5.18
2023-03-04T10:41:24.651Z,4.07
2023-03-04T10:44:02.989Z,4.88
2023-03-04T10:46:30.784Z,3.10
2023-03-04T10:48:59.131Z,4.03
2023-03-04T10:51:30.544Z,2.78
2023-03-04T10:54:28.755Z,6.07
2023-03-04T10:57:20.298Z,3.17
2023-03-04T10:59:53.563Z,2.10
2023-03-04T11:02:35.405Z,1.80
2023-03-04T11:05:07.327Z,1.63
2023-03-04T11:07:54.674Z,4.15
2023-03-04T11:10:38.765Z,3.80
2023-03-04T11:13:11.622Z,2.53
2023-03-04T11:15:57.852Z,2.13
2023-03-04T11:18:41.699Z,5.55
2023-03-04T11:21:17.405Z,2.40
2023-03-04T11:23:56.687Z,2.88
2023-03-04T11:26:34.398Z,2.90
2023-03-04T11:29:13.493Z,2.08
2023-03-04T11:31:48.319Z,4.63
2023-03-04T11:34:23.381Z,3.17
2023-03-04T11:37:16.933Z,4.80
2023-03-04T11:39:56.586Z,2.95
2023-03-04T11:42:37.341Z,3.10
2023-03-04T11:45:27.451Z,2.25
2023-03-04T11:48:12.907Z,2.55
2023-03-04T11:50:54.163Z,2.55
2023-03-04T11:53:39.334Z,2.85
2023-03-04T11:56:26.237Z,4.75
2023-03-04T11:59:01.888Z,3.10
2023-03-04T12:01:35.246Z,3.38
2023-03-04T12:04:26.075Z,3.58
2023-03-04T12:06:55.521Z,5.90
2023-03-04T12:09:51.907Z,4.47
2023-03-04T12:12:30.477Z,4.30
2023-03-04T12:15:32.484Z,10.32
2023-03-04T12:18:05.198Z,5.90
2023-03-04T12:20:31.843Z,9.10
2023-03-04T12:23:13.532Z,7.90
2023-03-04T12:26:09.757Z,6.88
2023-03-04T12:28:41.130Z,5.80
2023-03-04T12:31:22.523Z,7.60
2023-03-04T12:34:27.858Z,5.03
2023-03-04T12:37:19.300Z,5.00
2023-03-04T12:40:08.027Z,7.43
2023-03-04T12:43:28.472Z,9.05
2023-03-04T12:46:03.200Z,4.55
2023-03-04T12:48:36.319Z,9.07
2023-03-04T12:51:05.857Z,11.43
2023-03-04T12:54:00.631Z,6.13
2023-03-04T12:56:43.890Z,5.95
2023-03-04T12:59:20.178Z,5.78
2023-03-04T13:01:56.645Z,6.85
2023-03-04T13:04:43.809Z,8.07
2023-03-04T13:07:57.563Z,8.88
2023-03-04T13:10:25.547Z,7.43
2023-03-04T13:12:55.015Z,9.57
2023-03-04T13:15:21.723Z,7.43
2023-03-04T13:18:07.027Z,10.55
2023-03-04T13:20:41.167Z,12.55
2023-03-04T13:23:13.325Z,6.88
2023-03-04T13:25:55.245Z,8.90
2023-03-04T13:28:29.963Z,11.48
2023-03-04T13:30:57.107Z,7.55
2023-03-04T13:33:23.808Z,11.25
2023-03-04T13:35:55.252Z,11.07
2023-03-04T13:38:27.795Z,9.90
2023-03-04T13:41:00.659Z,11.68
2023-03-04T13:43:39.674Z,11.68
2023-03-04T13:46:42.087Z,10.57
2023-03-04T13:49:21.434Z,8.68
2023-03-04T13:51:48.309Z,9.43
2023-03-04T13:54:33.484Z,15.63
2023-03-04T13:57:20.694Z,10.15
2023-03-04T13:59:56.044Z,6.88
2023-03-04T14:02:25.995Z,7.22
2023-03-04T14:05:00.933Z,16.65
2023-03-04T14:07:36.724Z,7.95
2023-03-04T14:10:12.410Z,12.48
2023-03-04T14:12:44.556Z,8.38
2023-03-04T14:15:13.978Z,13.43
2023-03-04T14:17:46.373Z,11.05
2023-03-04T14:20:25.054Z,7.65
2023-03-04T14:22:51.871Z,10.18
2023-03-04T14:25:29.949Z,14.98
2023-03-04T14:28:16.619Z,9.32
2023-03-04T14:30:51.018Z,11.88
2023-03-04T14:33:26.499Z,9.23
2023-03-04T14:35:59.624Z,13.75
2023-03-04T14:38:35.202Z,11.25
2023-03-04T14:41:27.361Z,6.05
2023-03-04T14:43:58.860Z,8.30
2023-03-04T14:46:37.143Z,9.55
2023-03-04T14:49:04.452Z,9.50
2023-03-04T14:51:37.708Z,6.72
2023-03-04T14:54:04.936Z,5.28
2023-03-04T14:56:34.792Z,4.70
2023-03-04T14:59:01.575Z,4.72
2023-03-04T15:01:33.464Z,4.90
2023-03-04T15:04:07.822Z,7.25
2023-03-04T15:06:37.365Z,5.05
2023-03-04T15:09:19.061Z,10.55
2023-03-04T15:11:51.223Z,3.78
2023-03-04T15:14:46.353Z,5.95
2023-03-04T15:17:38.682Z,7.40
2023-03-04T15:20:08.722Z,4.55
2023-03-04T15:22:48.888Z,7.35
2023-03-04T15:25:16.271Z,9.13
2023-03-04T15:27:44.169Z,7.43
2023-03-04T15:30:24.115Z,12.95
2023-03-04T15:32:51.505Z,5.63
2023-03-04T15:35:20.368Z,5.88
2023-03-04T15:37:49.642Z,5.85
2023-03-04T15:40:41.908Z,8.88
2023-03-04T15:43:13.904Z,4.78
2023-03-04T15:45:41.361Z,5.25
2023-03-04T15:48:11.909Z,4.97
2023-03-04T15:50:44.508Z,6.22
2023-03-04T15:53:39.742Z,5.57
2023-03-04T15:56:12.289Z,6.32
2023-03-04T15:58:39.858Z,5.47
2023-03-04T16:01:06.737Z,7.13
2023-03-04T16:03:33.599Z,5.68
2023-03-04T16:06:00.475Z,8.45
2023-03-04T16:08:27.316Z,8.02
2023-03-04T16:10:54.725Z,6.75
2023-03-04T16:13:23.848Z,3.95
2023-03-04T16:15:51.070Z,8.13
2023-03-04T16:18:18.217Z,6.72
2023-03-04T16:20:47.877Z,7.22
2023-03-04T16:23:18.738Z,7.85
2023-03-04T16:25:47.097Z,8.82
2023-03-04T16:28:14.193Z,7.13
2023-03-04T16:30:41.731Z,8.30
2023-03-04T16:33:08.480Z,7.82
2023-03-04T16:35:37.166Z,5.15
2023-03-04T16:38:07.219Z,9.15
2023-03-04T16:40:33.949Z,7.80
2023-03-04T16:43:00.668Z,6.28
2023-03-04T16:45:32.604Z,8.13
2023-03-04T16:47:59.277Z,12.00
2023-03-04T16:50:28.637Z,9.40
2023-03-04T16:52:56.285Z,6.13
2023-03-04T16:55:28.432Z,9.88
2023-03-04T16:57:57.642Z,7.60
2023-03-04T17:00:27.179Z,5.68
2023-03-04T17:02:58.937Z,5.37
2023-03-04T17:05:28.963Z,4.65
2023-03-04T17:07:55.639Z,7.65
2023-03-04T17:10:23.394Z,6.05
2023-03-04T17:12:50.904Z,10.32
2023-03-04T17:15:18.169Z,7.25
2023-03-04T17:17:45.483Z,8.15
2023-03-04T17:20:16.448Z,6.90
2023-03-04T17:22:43.777Z,10.10
2023-03-04T17:25:11.417Z,8.48
2023-03-04T17:27:38.188Z,9.05
2023-03-04T17:30:07.161Z,6.30
2023-03-04T17:32:34.400Z,11.43
2023-03-04T17:35:01.195Z,9.98
2023-03-04T17:37:27.984Z,11.10
2023-03-04T17:39:54.750Z,8.15
2023-03-04T17:42:21.651Z,7.55
2023-03-04T17:44:48.441Z,6.70
2023-03-04T17:47:15.946Z,11.35
2023-03-04T17:49:42.737Z,12.25
2023-03-04T17:52:10.538Z,8.90
2023-03-04T17:54:37.902Z,9.82
2023-03-04T17:57:05.156Z,12.45
2023-03-04T17:59:31.855Z,10.48
2023-03-04T18:01:58.638Z,10.18
2023-03-04T18:04:25.361Z,13.75
2023-03-04T18:06:52.099Z,10.93
2023-03-04T18:09:18.847Z,6.28
2023-03-04T18:11:45.854Z,8.73
2023-03-04T18:14:12.779Z,12.75
2023-03-04T18:16:40.175Z,12.02
2023-03-04T18:19:07.235Z,8.40
2023-03-04T18:21:33.981Z,10.57
2023-03-04T18:24:00.935Z,10.02
2023-03-04T18:26:28.486Z,8.40
2023-03-04T18:28:56.602Z,8.23
2023-03-04T18:31:27.264Z,9.68
2023-03-04T18:33:55.242Z,8.02
2023-03-04T18:36:21.979Z,10.45
2023-03-04T18:38:48.690Z,14.05
2023-03-04T18:41:16.272Z,11.32
2023-03-04T18:43:43.005Z,9.30
2023-03-04T18:46:17.797Z,8.13
2023-03-04T18:48:48.046Z,14.02
2023-03-04T18:51:14.756Z,14.30
2023-03-04T18:53:41.464Z,11.50
2023-03-04T18:56:13.231Z,11.70
2023-03-04T18:58:41.384Z,10.00
2023-03-04T19:01:10.948Z,13.57
2023-03-04T19:03:38.630Z,10.93
2023-03-04T19:06:06.443Z,14.65
2023-03-04T19:08:33.949Z,11.90
2023-03-04T19:11:00.760Z,13.10
2023-03-04T19:13:30.225Z,9.75
2023-03-04T19:15:57.342Z,10.40
2023-03-04T19:18:24.260Z,13.07
2023-03-04T19:20:51.159Z,9.65
2023-03-04T19:23:18.175Z,8.55
2023-03-04T19:25:44.905Z,11.35
2023-03-04T19:28:11.797Z,9.20
2023-03-04T19:30:41.989Z,8.40
2023-03-04T19:33:10.237Z,8.05
2023-03-04T19:35:41.961Z,12.13
2023-03-04T19:38:09.103Z,7.35
2023-03-04T19:40:40.270Z,10.63
2023-03-04T19:43:08.168Z,8.85
2023-03-04T19:45:34.943Z,8.48
2023-03-04T19:48:03.113Z,8.27
2023-03-04T19:50:31.259Z,14.15
2023-03-04T19:52:58.265Z,10.18
2023-03-04T19:55:24.991Z,11.25
2023-03-04T19:57:51.652Z,11.23
2023-03-04T20:00:18.769Z,12.50
2023-03-04T20:02:46.451Z,12.73
2023-03-04T20:05:13.576Z,9.13
2023-03-04T20:07:40.449Z,8.93
2023-03-04T20:10:07.915Z,11.93
2023-03-04T20:12:36.263Z,12.25
2023-03-04T20:15:06.530Z,15.85
2023-03-04T20:17:33.241Z,12.57
2023-03-04T20:19:59.950Z,11.68
2023-03-04T20:22:26.780Z,14.07
2023-03-04T20:24:54.849Z,11.65
2023-03-04T20:27:21.566Z,10.88
2023-03-04T20:29:49.146Z,7.25
2023-03-04T20:32:15.970Z,12.02
2023-03-04T20:34:42.694Z,9.82
2023-03-04T20:37:09.529Z,9.85
2023-03-04T20:39:36.191Z,12.02
2023-03-04T20:42:03.821Z,11.75
2023-03-04T20:44:30.651Z,12.88
2023-03-04T20:46:57.635Z,12.93
2023-03-04T20:49:27.273Z,12.13
2023-03-04T20:52:03.202Z,13.68
2023-03-04T20:54:30.452Z,7.35
2023-03-04T20:56:57.423Z,10.23
2023-03-04T20:59:24.384Z,8.00
2023-03-04T21:01:52.016Z,9.40
2023-03-04T21:04:19.607Z,11.02
2023-03-04T21:06:51.641Z,11.98
2023-03-04T21:09:19.852Z,15.55
2023-03-04T21:11:48.137Z,11.73
2023-03-04T21:14:24.965Z,18.05
2023-03-04T21:16:54.460Z,24.42
2023-03-04T21:19:24.327Z,18.90
2023-03-04T21:21:52.156Z,15.90
2023-03-04T21:24:22.206Z,20.50
2023-03-04T21:26:49.525Z,17.73
2023-03-04T21:29:21.370Z,14.43
2023-03-04T21:31:52.803Z,10.40
2023-03-04T21:34:29.439Z,18.30
2023-03-04T21:36:56.377Z,12.65
2023-03-04T21:39:24.849Z,15.02
2023-03-04T21:41:52.714Z,9.45
2023-03-04T21:44:28.551Z,16.23
2023-03-04T21:47:00.523Z,17.52
2023-03-04T21:49:27.519Z,13.48
2023-03-04T21:51:54.455Z,11.65
2023-03-04T21:54:21.382Z,13.18
2023-03-04T21:56:49.422Z,13.48
2023-03-04T21:59:17.486Z,9.38
2023-03-04T22:01:44.483Z,12.30
2023-03-04T22:04:11.250Z,8.85
2023-03-04T22:06:39.989Z,9.77
2023-03-04T22:09:07.191Z,14.93
2023-03-04T22:11:34.028Z,13.73
2023-03-04T22:14:02.908Z,12.30
2023-03-04T22:16:32.779Z,12.50
2023-03-04T22:19:00.657Z,20.52
2023-03-04T22:21:27.379Z,9.23
2023-03-04T22:23:54.196Z,12.05
2023-03-04T22:26:30.035Z,11.95
2023-03-04T22:28:56.956Z,9.65
2023-03-04T22:31:30.289Z,12.70
2023-03-04T22:34:01.117Z,9.65
2023-03-04T22:36:32.772Z,13.00
2023-03-04T22:39:01.021Z,12.73
2023-03-04T22:41:27.775Z,12.10
2023-03-04T22:43:54.563Z,12.90
2023-03-04T22:46:30.138Z,8.82
2023-03-04T22:49:00.323Z,8.60
2023-03-04T22:51:28.747Z,10.50
2023-03-04T22:53:56.222Z,10.07
2023-03-04T22:56:23.518Z,12.82
2023-03-04T22:58:50.606Z,11.05
2023-03-04T23:01:18.358Z,10.77
2023-03-04T23:03:47.082Z,9.30
2023-03-04T23:06:25.228Z,9.10
2023-03-04T23:08:52.317Z,7.95
2023-03-04T23:11:31.290Z,11.27
2023-03-04T23:13:59.187Z,10.30
2023-03-04T23:16:27.798Z,8.27
2023-03-04T23:18:54.642Z,8.88
2023-03-04T23:21:23.819Z,8.95
2023-03-04T23:23:51.358Z,10.15
2023-03-04T23:26:21.728Z,13.13
2023-03-04T23:31:15.496Z,12.45
2023-03-04T23:33:43.323Z,8.43
2023-03-04T23:36:14.360Z,14.18
2023-03-04T23:38:43.774Z,9.40
2023-03-04T23:41:12.936Z,10.13
2023-03-04T23:43:39.665Z,15.38
2023-03-04T23:46:09.174Z,8.57
2023-03-04T23:48:35.968Z,11.03
2023-03-04T23:51:02.902Z,13.35
2023-03-04T23:53:30.336Z,8.25
2023-03-04T23:55:57.015Z,13.32
2023-03-04T23:58:23.791Z,17.20
